Time;durP1;ratioP1;P1;durP2;ratioP2;P2;SDS_P1;SDS_P2;PMS_P1;PMS_P2;Temp;Humidity;BMP_temperature;BMP_pressure;BME280_temperature;BME280_humidity;BME280_pressure;Samples;Min_cycle;Max_cycle;Signal;HPM_P1;HPM_P2
2021/01/30 00:00:10;;;;;;;26.37;13.50;;;;;;;-2.65;59.02;98669.48;1751743;81;21370;-64
2021/01/30 00:02:38;;;;;;;30.35;12.63;;;;;;;-2.73;59.05;98672.98;1751969;81;21073;-64
2021/01/30 00:05:09;;;;;;;30.70;13.45;;;;;;;-2.81;59.18;98671.73;1752146;81;21199;-64
2021/01/30 00:07:37;;;;;;;29.35;12.85;;;;;;;-2.88;59.32;98674.22;1751901;80;21190;-63
2021/01/30 00:10:08;;;;;;;27.27;12.85;;;;;;;-2.95;59.28;98674.58;1751888;81;20962;-63
2021/01/30 00:12:36;;;;;;;24.30;12.55;;;;;;;-2.99;59.38;98670.66;1749657;81;21344;-64
2021/01/30 00:15:06;;;;;;;24.67;12.20;;;;;;;-3.01;59.24;98670.84;1751849;81;20970;-65
2021/01/30 00:17:33;;;;;;;26.20;11.73;;;;;;;-3.06;59.26;98674.95;1750894;81;21598;-63
2021/01/30 00:20:06;;;;;;;24.65;11.08;;;;;;;-3.08;59.36;98674.33;1751833;81;21152;-64
2021/01/30 00:22:34;;;;;;;32.83;14.58;;;;;;;-3.11;59.34;98671.55;1751821;81;21068;-63
2021/01/30 00:25:03;;;;;;;33.93;14.63;;;;;;;-3.11;59.08;98672.85;1752135;81;21407;-63
2021/01/30 00:27:30;;;;;;;25.43;12.25;;;;;;;-3.14;58.98;98671.89;1752332;80;21211;-64
2021/01/30 00:29:59;;;;;;;21.60;11.53;;;;;;;-3.17;59.23;98674.85;1752023;81;21013;-63
2021/01/30 00:32:27;;;;;;;21.02;11.45;;;;;;;-3.20;59.33;98671.27;1751813;81;21009;-62
2021/01/30 00:34:54;;;;;;;21.25;11.93;;;;;;;-3.22;59.44;98671.94;1751843;81;21061;-62
2021/01/30 00:37:24;;;;;;;21.52;10.80;;;;;;;-3.22;59.44;98671.94;1746117;80;21360;-62
2021/01/30 00:39:52;;;;;;;20.30;9.95;;;;;;;-3.22;59.36;98675.87;1707008;84;21141;-61
2021/01/30 00:42:24;;;;;;;26.75;12.07;;;;;;;-3.20;59.35;98673.89;1707786;84;21168;-62
2021/01/30 00:44:52;;;;;;;20.43;11.12;;;;;;;-3.20;58.91;98678.62;1764325;80;21002;-61
2021/01/30 00:47:21;;;;;;;21.25;11.22;;;;;;;-3.22;59.08;98683.23;1764826;81;21145;-61
2021/01/30 00:49:49;;;;;;;25.17;11.40;;;;;;;-3.22;59.06;98679.30;1764660;79;23572;-61
2021/01/30 00:52:19;;;;;;;;;;;;;;;-3.21;59.44;98687.97;1766920;80;21452;-61
2021/01/30 00:54:49;;;;;;;21.90;11.57;;;;;;;-3.24;59.74;98690.47;1761627;81;20195;-63
2021/01/30 00:57:17;;;;;;;22.27;11.65;;;;;;;-3.30;59.92;98698.98;1764389;81;20979;-62
2021/01/30 00:59:45;;;;;;;26.48;12.23;;;;;;;-3.30;59.92;98698.98;1764746;80;20963;-63
2021/01/30 01:02:14;;;;;;;24.55;11.68;;;;;;;-3.37;60.04;98696.23;1764690;81;21246;-64
2021/01/30 01:04:44;;;;;;;23.70;11.63;;;;;;;-3.49;60.38;98696.76;1764387;80;21424;-62
2021/01/30 01:07:14;;;;;;;26.55;12.13;;;;;;;-3.52;60.77;98690.05;1760963;80;21058;-62
2021/01/30 01:09:43;;;;;;;24.77;12.37;;;;;;;-3.48;60.83;98691.34;1764469;81;21133;-62
2021/01/30 01:12:11;;;;;;;28.92;14.40;;;;;;;-3.38;60.84;98691.97;1764487;81;21136;-63
2021/01/30 01:14:39;;;;;;;29.52;13.38;;;;;;;-3.38;60.84;98691.97;1764591;81;21377;-62
2021/01/30 01:17:06;;;;;;;26.93;13.75;;;;;;;-3.40;60.86;98696.58;1764355;81;20900;-63
2021/01/30 01:19:34;;;;;;;26.80;13.68;;;;;;;-3.46;60.99;98694.64;1764382;81;21010;-62
2021/01/30 01:22:03;;;;;;;28.70;14.35;;;;;;;-3.49;61.22;98689.70;1765181;81;21492;-63
2021/01/30 01:24:30;;;;;;;28.23;11.53;;;;;;;-3.47;61.17;98697.42;1764765;81;21577;-63
2021/01/30 01:26:59;;;;;;;27.73;13.53;;;;;;;-3.58;61.09;98697.27;1764766;80;21108;-64
2021/01/30 01:29:26;;;;;;;28.95;13.85;;;;;;;-3.66;61.28;98700.73;1764544;79;20931;-63
2021/01/30 01:31:55;;;;;;;27.82;14.83;;;;;;;-3.75;61.33;98702.55;1757146;80;20983;-63
2021/01/30 01:34:27;;;;;;;39.70;16.50;;;;;;;-4.02;61.72;98702.41;1742851;81;21044;-63
2021/01/30 01:37:01;;;;;;;45.10;19.77;;;;;;;-4.02;61.72;98702.41;1745517;81;21125;-62
2021/01/30 01:39:30;;;;;;;46.98;21.07;;;;;;;-4.09;62.04;98704.87;1718718;80;21380;-62
2021/01/30 01:42:12;;;;;;;51.23;22.65;;;;;;;-4.14;62.21;98697.19;1718427;82;21591;-63
2021/01/30 01:44:40;;;;;;;65.72;28.87;;;;;;;-4.17;62.32;98703.56;1718547;82;21022;-63
2021/01/30 01:47:12;;;;;;;68.35;30.00;;;;;;;-4.29;62.49;98697.83;1718656;82;21034;-60
2021/01/30 01:49:40;;;;;;;83.52;37.80;;;;;;;-4.54;62.91;98690.46;1718448;82;21188;-62
2021/01/30 01:52:33;;;;;;;103.17;44.60;;;;;;;-4.54;62.91;98690.46;1718878;82;21368;-60
2021/01/30 01:55:15;;;;;;;95.00;38.85;;;;;;;-4.59;63.23;98700.10;1719863;82;21150;-61
2021/01/30 01:57:53;;;;;;;93.87;38.35;;;;;;;-4.58;63.64;98700.91;1819536;78;22773;-61
2021/01/30 02:00:22;;;;;;;94.87;39.92;;;;;;;-4.53;63.54;98705.19;1788599;79;20919;-64
2021/01/30 02:02:51;;;;;;;99.47;41.33;;;;;;;-4.53;63.54;98705.19;1791455;79;21362;-63
2021/01/30 02:05:34;;;;;;;;;;;;;;;-4.51;63.61;98705.02;1796792;79;20939;-62
2021/01/30 02:08:07;;;;;;;79.82;33.05;;;;;;;-4.39;63.63;98708.95;1770913;79;20179;-63
2021/01/30 02:10:42;;;;;;;65.95;29.70;;;;;;;-4.11;62.92;98708.16;1791294;79;20919;-62
2021/01/30 02:13:14;;;;;;;67.12;30.55;;;;;;;-4.11;62.92;98708.16;1792626;79;20915;-63
2021/01/30 02:15:44;;;;;;;56.05;26.02;;;;;;;-4.06;62.72;98706.36;1791774;79;22286;-62
2021/01/30 02:18:46;;;;;;;62.85;28.05;;;;;;;-3.97;62.52;98708.48;1790895;79;21065;-63
2021/01/30 02:21:31;;;;;;;54.15;26.60;;;;;;;-3.94;62.05;98706.84;1791274;79;21091;-63
2021/01/30 02:24:10;;;;;;;60.12;26.12;;;;;;;-4.05;61.73;98714.52;1758838;80;21154;-61
2021/01/30 02:27:10;;;;;;;;;;;;;;;-4.22;61.63;98711.09;1766252;80;21137;-60
2021/01/30 02:30:11;;;;;;;53.25;24.60;;;;;;;-4.42;61.77;98714.04;1761483;80;21207;-62
2021/01/30 02:33:09;;;;;;;51.02;23.87;;;;;;;-4.78;62.20;98718.20;1818997;78;22391;-63
2021/01/30 02:36:05;;;;;;;57.73;27.25;;;;;;;-5.02;62.59;98717.66;1720604;82;21006;-62
2021/01/30 02:38:32;;;;;;;71.85;32.08;;;;;;;-5.08;63.01;98718.77;1784199;79;21453;-63
2021/01/30 02:41:04;;;;;;;72.97;33.80;;;;;;;-5.03;63.36;98712.59;1762736;79;21053;-61
2021/01/30 02:43:39;;;;;;;71.40;33.33;;;;;;;-4.92;63.20;98718.81;1791063;79;21013;-62
2021/01/30 02:46:12;;;;;;;81.45;35.43;;;;;;;-4.91;63.11;98704.78;1793655;79;21010;-64
2021/01/30 02:48:44;;;;;;;73.37;34.03;;;;;;;-4.91;63.11;98704.78;1791961;79;21527;-63
2021/01/30 02:51:17;;;;;;;78.22;35.65;;;;;;;-4.90;63.39;98702.97;1787971;79;22506;-64
2021/01/30 02:53:49;;;;;;;74.00;34.75;;;;;;;-4.84;63.29;98696.63;1792730;79;21025;-63
2021/01/30 02:56:17;;;;;;;77.47;35.20;;;;;;;-4.80;63.25;98702.34;1791494;79;20926;-63
2021/01/30 02:59:12;;;;;;;75.97;35.25;;;;;;;-4.78;63.06;98697.79;1748399;79;21005;-62
2021/01/30 03:01:39;;;;;;;74.47;33.25;;;;;;;-4.77;62.90;98698.09;1791979;79;21186;-62
2021/01/30 03:04:15;;;;;;;77.45;34.98;;;;;;;-4.77;62.81;98703.33;1790125;79;21365;-61
2021/01/30 03:07:03;;;;;;;60.70;29.77;;;;;;;-4.78;62.95;98692.06;1789921;79;21080;-63
2021/01/30 03:09:47;;;;;;;68.17;29.80;;;;;;;-4.75;62.94;98701.39;1789763;79;21053;-63
2021/01/30 03:12:48;;;;;;;61.33;26.37;;;;;;;-4.76;62.84;98695.31;1790688;79;21017;-62
2021/01/30 03:15:24;;;;;;;49.10;24.75;;;;;;;-4.79;63.30;98683.88;1793587;79;20986;-63
2021/01/30 03:17:52;;;;;;;50.17;23.87;;;;;;;-4.79;63.30;98683.88;1792807;79;21389;-62
2021/01/30 03:20:21;;;;;;;47.25;23.42;;;;;;;-4.70;63.12;98687.83;1789653;79;21259;-63
2021/01/30 03:22:49;;;;;;;42.70;21.97;;;;;;;-4.69;63.17;98677.70;1774482;79;21136;-67
2021/01/30 03:25:21;;;;;;;45.75;20.92;;;;;;;-4.61;63.18;98677.23;1757701;80;21132;-64
2021/01/30 03:27:49;;;;;;;42.25;19.05;;;;;;;-4.49;63.24;98675.11;1759228;80;21603;-64
2021/01/30 03:30:18;;;;;;;43.08;20.48;;;;;;;-4.45;63.13;98676.40;1705833;80;21385;-65
2021/01/30 03:32:45;;;;;;;46.00;22.00;;;;;;;-4.45;63.10;98667.74;1749923;80;21085;-64
2021/01/30 03:35:13;;;;;;;43.17;20.60;;;;;;;-4.50;63.09;98660.89;1746361;81;21068;-65
2021/01/30 03:37:41;;;;;;;42.88;21.15;;;;;;;-4.54;63.31;98660.37;1746254;81;21169;-64
2021/01/30 03:40:10;;;;;;;41.55;19.82;;;;;;;-4.55;63.21;98659.23;1749031;81;21164;-63
2021/01/30 03:42:38;;;;;;;39.55;20.45;;;;;;;-4.66;63.58;98655.95;1750670;81;21379;-63
2021/01/30 03:45:09;;;;;;;38.23;18.82;;;;;;;-4.66;63.58;98655.95;1747467;81;21042;-63
2021/01/30 03:47:37;;;;;;;38.83;19.07;;;;;;;-4.57;63.71;98660.20;1748150;81;20983;-64
2021/01/30 03:50:07;;;;;;;38.20;19.67;;;;;;;-4.47;63.65;98657.95;1748059;81;20978;-63
2021/01/30 03:52:35;;;;;;;34.78;18.67;;;;;;;-4.41;63.54;98663.33;1746572;81;21169;-62
2021/01/30 03:55:04;;;;;;;36.40;18.23;;;;;;;-4.33;63.44;98654.65;1748305;81;21379;-63
2021/01/30 03:57:32;;;;;;;35.73;18.57;;;;;;;-4.28;63.48;98658.11;1746193;81;21697;-64
2021/01/30 03:59:59;;;;;;;38.28;17.90;;;;;;;-4.23;63.33;98659.23;1745854;81;21015;-61
2021/01/30 04:02:27;;;;;;;42.10;18.57;;;;;;;-4.23;63.33;98659.23;1748546;81;20946;-63
2021/01/30 04:04:55;;;;;;;39.30;19.55;;;;;;;-4.16;63.34;98664.63;1743889;81;21130;-63
2021/01/30 04:07:23;;;;;;;37.40;18.02;;;;;;;-4.05;63.12;98660.84;1748159;81;22455;-63
2021/01/30 04:09:50;;;;;;;40.90;19.90;;;;;;;-3.97;62.97;98654.81;1748102;81;21164;-62
2021/01/30 04:12:18;;;;;;;41.02;20.40;;;;;;;-3.90;62.64;98655.75;1747207;80;21061;-62
2021/01/30 04:14:46;;;;;;;38.95;20.02;;;;;;;-3.78;62.22;98644.45;1745801;81;21054;-62
2021/01/30 04:17:13;;;;;;;40.80;18.60;;;;;;;-3.78;62.22;98644.45;1746597;81;21164;-62
2021/01/30 04:19:41;;;;;;;38.95;20.02;;;;;;;-3.73;62.15;98656.05;1744711;81;22247;-63
2021/01/30 04:22:09;;;;;;;42.65;20.68;;;;;;;-3.67;61.97;98661.11;1747199;81;21042;-61
2021/01/30 04:24:36;;;;;;;38.83;21.20;;;;;;;-3.64;61.70;98662.08;1748113;81;21015;-61
2021/01/30 04:27:04;;;;;;;46.53;21.42;;;;;;;-3.62;61.47;98661.44;1746839;81;21018;-61
2021/01/30 04:29:32;;;;;;;40.25;20.52;;;;;;;-3.64;61.15;98663.89;1745378;81;21113;-61
2021/01/30 04:32:00;;;;;;;47.80;21.87;;;;;;;-3.67;61.05;98672.09;1751977;80;21211;-62
2021/01/30 04:34:28;;;;;;;52.80;26.20;;;;;;;-3.67;60.96;98673.40;1758092;80;21104;-63
2021/01/30 04:36:56;;;;;;;61.08;30.50;;;;;;;-3.73;60.46;98659.97;1761529;80;21041;-62
2021/01/30 04:39:24;;;;;;;65.10;31.50;;;;;;;-4.00;60.54;98653.83;1755771;80;20926;-64
2021/01/30 04:42:05;;;;;;;58.60;30.55;;;;;;;-4.25;61.02;98661.70;1758295;80;21081;-63
2021/01/30 04:44:48;;;;;;;58.50;30.12;;;;;;;-4.38;61.60;98660.08;1759226;80;21155;-63
2021/01/30 04:47:42;;;;;;;55.08;28.07;;;;;;;-4.26;61.96;98661.37;1824497;78;22236;-61
2021/01/30 04:50:43;;;;;;;55.88;28.15;;;;;;;-4.22;62.02;98662.68;1816251;79;21554;-64
2021/01/30 04:53:42;;;;;;;52.80;27.58;;;;;;;-4.22;61.99;98668.72;1812081;79;21197;-61
2021/01/30 04:56:18;;;;;;;;;;;;;;;-4.22;61.99;98668.72;1818987;79;21067;-61
2021/01/30 04:59:13;;;;;;;70.30;33.05;;;;;;;-4.19;61.75;98657.61;1815742;79;20184;-62
2021/01/30 05:02:09;;;;;;;56.10;28.12;;;;;;;-4.32;61.75;98655.48;1813655;79;20993;-63
2021/01/30 05:04:41;;;;;;;55.92;27.50;;;;;;;-4.42;62.19;98645.17;1812475;79;21005;-62
2021/01/30 05:07:25;;;;;;;60.63;30.50;;;;;;;-4.30;62.38;98645.19;1816434;79;22265;-63
2021/01/30 05:09:58;;;;;;;57.75;29.98;;;;;;;-4.18;62.12;98643.52;1812299;79;21629;-63
2021/01/30 05:12:55;;;;;;;54.80;27.62;;;;;;;-4.20;61.90;98647.62;1811348;79;21017;-63
2021/01/30 05:16:00;;;;;;;49.27;25.68;;;;;;;-4.33;62.01;98657.77;1812283;79;21213;-63
2021/01/30 05:18:53;;;;;;;57.65;26.62;;;;;;;-4.44;62.35;98664.96;1827927;78;22447;-63
2021/01/30 05:21:37;;;;;;;62.78;28.85;;;;;;;-4.52;62.56;98668.90;1794651;79;20986;-65
2021/01/30 05:24:07;;;;;;;65.72;31.80;;;;;;;-4.45;62.79;98678.20;1770742;80;21370;-63
2021/01/30 05:26:58;;;;;;;56.40;26.90;;;;;;;-4.28;62.64;98687.70;1739621;80;21164;-63
2021/01/30 05:29:58;;;;;;;60.12;30.15;;;;;;;-4.05;62.40;98685.25;1827961;76;22831;-62
2021/01/30 05:32:54;;;;;;;57.85;28.42;;;;;;;-4.00;62.07;98694.41;1816720;79;20923;-61
2021/01/30 05:35:25;;;;;;;66.22;30.48;;;;;;;-3.93;61.71;98708.45;1812592;79;21385;-61
2021/01/30 05:38:01;;;;;;;66.15;30.23;;;;;;;-3.92;61.58;98706.17;1816892;77;21057;-61
2021/01/30 05:40:36;;;;;;;55.30;26.90;;;;;;;-3.85;61.38;98719.44;1812171;79;21524;-62
2021/01/30 05:43:25;;;;;;;46.42;23.57;;;;;;;-3.76;61.09;98717.12;1815045;79;20997;-64
2021/01/30 05:45:58;;;;;;;43.90;22.93;;;;;;;-3.71;60.86;98717.42;1817237;79;20915;-61
2021/01/30 05:48:31;;;;;;;40.48;20.48;;;;;;;-3.59;60.86;98720.52;1816217;79;21373;-60
2021/01/30 05:51:17;;;;;;;41.70;20.30;;;;;;;-3.59;60.86;98720.52;1816570;79;20978;-61
2021/01/30 05:53:45;;;;;;;37.53;18.77;;;;;;;-3.54;60.74;98717.72;1816712;79;21554;-61
2021/01/30 05:56:13;;;;;;;36.58;19.50;;;;;;;-3.46;60.43;98712.98;1817076;79;21069;-62
2021/01/30 05:58:43;;;;;;;35.58;18.45;;;;;;;-3.42;60.20;98713.45;1816856;77;20978;-63
2021/01/30 06:01:22;;;;;;;38.17;19.85;;;;;;;-3.42;60.20;98713.45;1786412;79;21388;-63
2021/01/30 06:04:01;;;;;;;34.38;18.35;;;;;;;-3.35;60.16;98714.41;1813704;79;21005;-62
2021/01/30 06:06:38;;;;;;;31.73;16.80;;;;;;;-3.30;59.90;98715.21;1816421;79;21010;-62
2021/01/30 06:09:34;;;;;;;38.95;19.05;;;;;;;-3.28;59.94;98702.73;1814827;79;21124;-63
2021/01/30 06:12:20;;;;;;;44.95;20.97;;;;;;;-3.21;59.84;98715.02;1816890;79;20966;-62
2021/01/30 06:14:48;;;;;;;37.08;18.32;;;;;;;-3.12;59.60;98709.73;1815235;79;21207;-61
2021/01/30 06:17:27;;;;;;;34.23;17.42;;;;;;;-3.06;59.26;98705.95;1816950;79;20989;-61
2021/01/30 06:20:10;;;;;;;35.05;18.12;;;;;;;-3.16;59.19;98688.30;1811479;79;21567;-61
2021/01/30 06:22:38;;;;;;;33.00;17.12;;;;;;;-3.16;59.19;98688.30;1816982;78;21175;-60
2021/01/30 06:25:28;;;;;;;29.50;16.50;;;;;;;-3.21;59.26;98688.81;1816936;79;21140;-61
2021/01/30 06:28:00;;;;;;;33.00;16.35;;;;;;;-3.17;59.49;98687.45;1818910;77;21488;-61
2021/01/30 06:30:35;;;;;;;38.83;18.50;;;;;;;-3.09;59.55;98684.48;1824998;78;21015;-62
2021/01/30 06:33:26;;;;;;;34.70;16.90;;;;;;;-3.03;59.52;98682.00;1829388;78;21206;-62
2021/01/30 06:36:13;;;;;;;33.18;18.30;;;;;;;-2.96;59.56;98680.80;1806442;78;21127;-62
2021/01/30 06:38:47;;;;;;;31.50;17.20;;;;;;;-2.80;59.52;98672.54;1828033;78;21083;-65
2021/01/30 06:41:26;;;;;;;40.55;19.57;;;;;;;-2.74;59.56;98671.84;1821801;78;22370;-63
2021/01/30 06:44:20;;;;;;;43.13;20.55;;;;;;;-2.75;59.53;98673.66;1794486;79;21073;-64
2021/01/30 06:47:19;;;;;;;48.73;24.50;;;;;;;-2.72;59.32;98665.94;1800740;79;21377;-67
2021/01/30 06:49:56;;;;;;;76.57;32.17;;;;;;;-2.72;59.32;98665.94;1794396;79;20985;-64
2021/01/30 06:52:29;;;;;;;110.63;47.48;;;;;;;-2.69;59.35;98654.59;1801942;79;20879;-64
2021/01/30 06:55:13;;;;;;;79.32;36.50;;;;;;;-2.72;59.14;98644.95;1794246;79;21002;-65
2021/01/30 06:58:02;;;;;;;103.25;44.73;;;;;;;-2.96;59.64;98641.47;1795836;79;21618;-64
2021/01/30 07:00:34;;;;;;;124.70;53.17;;;;;;;-3.05;60.37;98644.66;1799348;79;21211;-64
2021/01/30 07:03:15;;;;;;;126.45;54.08;;;;;;;-2.85;60.71;98648.14;1799837;79;21025;-62
2021/01/30 07:06:13;;;;;;;114.37;49.40;;;;;;;-2.85;60.71;98648.14;1803539;79;21137;-62
2021/01/30 07:08:59;;;;;;;92.00;39.33;;;;;;;-2.74;60.80;98649.06;1801770;79;21080;-63
2021/01/30 07:11:54;;;;;;;120.87;52.83;;;;;;;-2.62;60.95;98640.77;1798392;79;21207;-64
2021/01/30 07:14:52;;;;;;;111.42;49.77;;;;;;;-2.64;60.89;98644.88;1797358;79;21419;-64
2021/01/30 07:18:01;;;;;;;97.40;43.40;;;;;;;-2.79;61.39;98643.52;1798917;79;22113;-64
2021/01/30 07:20:41;;;;;;;92.67;41.90;;;;;;;-2.77;62.14;98631.03;1798243;79;21314;-65
2021/01/30 07:23:27;;;;;;;100.10;44.65;;;;;;;-2.78;62.39;98625.95;1811076;77;21014;-63
2021/01/30 07:26:21;;;;;;;100.80;44.27;;;;;;;-2.80;62.68;98633.20;1758945;79;21054;-64
2021/01/30 07:29:00;;;;;;;97.60;44.03;;;;;;;-2.69;63.10;98631.48;1758925;80;22291;-63
2021/01/30 07:31:47;;;;;;;89.83;41.75;;;;;;;-2.61;63.34;98635.34;1757960;79;21074;-63
2021/01/30 07:34:50;;;;;;;89.70;44.45;;;;;;;-2.39;63.34;98628.95;1758798;79;21070;-62
2021/01/30 07:37:22;;;;;;;87.30;37.67;;;;;;;-2.22;63.21;98633.08;1758570;79;21126;-65
2021/01/30 07:40:00;;;;;;;90.25;39.70;;;;;;;-2.02;62.61;98635.99;1748627;79;21076;-59
2021/01/30 07:42:54;;;;;;;90.70;44.33;;;;;;;-2.01;62.24;98639.45;1801215;79;21345;-60
2021/01/30 07:45:33;;;;;;;72.67;35.00;;;;;;;-1.94;62.25;98641.69;1820302;78;22725;-59
2021/01/30 07:48:27;;;;;;;85.07;40.15;;;;;;;-2.08;62.33;98653.78;1791199;79;21093;-61
2021/01/30 07:50:58;;;;;;;82.67;36.83;;;;;;;-2.20;62.32;98658.64;1791311;79;22186;-61
2021/01/30 07:53:27;;;;;;;88.22;41.37;;;;;;;-2.28;62.77;98654.80;1788251;79;21631;-61
2021/01/30 07:56:20;;;;;;;;;;;;;;;-2.24;63.26;98657.87;1796938;79;20958;-60
2021/01/30 07:59:14;;;;;;;97.20;41.73;;;;;;;-2.14;63.00;98652.68;1791799;79;20150;-60
2021/01/30 08:02:02;;;;;;;94.32;41.77;;;;;;;-2.00;63.06;98654.23;1791953;79;21623;-63
2021/01/30 08:05:04;;;;;;;99.90;41.77;;;;;;;-1.82;62.99;98659.13;1793267;79;21372;-61
2021/01/30 08:07:57;;;;;;;75.12;35.17;;;;;;;-1.68;62.82;98662.76;1791511;79;21085;-60
2021/01/30 08:10:40;;;;;;;62.00;28.65;;;;;;;-1.58;62.53;98660.68;1796184;79;21022;-62
2021/01/30 08:13:45;;;;;;;53.87;25.82;;;;;;;-1.58;62.17;98655.42;1791253;79;20978;-65
2021/01/30 08:16:33;;;;;;;47.38;21.65;;;;;;;-1.63;62.30;98652.03;1792484;79;21164;-62
2021/01/30 08:19:05;;;;;;;50.08;21.93;;;;;;;-1.57;62.49;98652.31;1790803;79;21380;-64
2021/01/30 08:21:47;;;;;;;43.50;22.48;;;;;;;-1.55;63.14;98657.69;1791047;79;21034;-61
2021/01/30 08:24:35;;;;;;;43.08;20.55;;;;;;;-1.41;62.92;98658.70;1756251;81;21179;-63
2021/01/30 08:27:11;;;;;;;39.40;21.47;;;;;;;-1.21;62.66;98652.86;1757939;81;21124;-63
2021/01/30 08:29:41;;;;;;;37.23;18.32;;;;;;;-1.10;62.33;98653.20;1757966;81;21498;-63
2021/01/30 08:32:29;;;;;;;42.58;20.02;;;;;;;-1.02;62.26;98660.16;1757296;81;21378;-62
2021/01/30 08:35:24;;;;;;;42.25;22.27;;;;;;;-0.96;62.00;98663.88;1756084;81;21145;-62
2021/01/30 08:38:08;;;;;;;45.43;21.80;;;;;;;-0.92;61.82;98663.32;1758364;81;21171;-60
2021/01/30 08:40:53;;;;;;;43.55;21.23;;;;;;;-0.89;61.88;98659.51;1759052;81;21064;-62
2021/01/30 08:43:40;;;;;;;60.43;28.95;;;;;;;-0.93;62.09;98664.34;1755783;81;20950;-62
2021/01/30 08:46:28;;;;;;;87.67;35.45;;;;;;;-0.94;62.29;98664.53;1756293;79;21218;-62
2021/01/30 08:49:19;;;;;;;;;;;;;;;-0.92;62.46;98672.53;1760328;81;21069;-62
2021/01/30 08:51:50;;;;;;;79.20;33.80;;;;;;;-0.91;62.93;98661.02;1755618;81;20219;-61
2021/01/30 08:54:33;;;;;;;89.42;39.38;;;;;;;-0.83;63.50;98665.34;1818946;78;23312;-60
2021/01/30 08:57:01;;;;;;;86.32;35.33;;;;;;;-0.92;63.88;98658.56;1789107;79;20982;-62
2021/01/30 08:59:49;;;;;;;83.67;37.07;;;;;;;-0.97;64.33;98656.50;1793037;79;21361;-61
2021/01/30 09:02:37;;;;;;;91.65;35.38;;;;;;;-1.04;65.12;98642.45;1793255;79;21669;-62
2021/01/30 09:05:14;;;;;;;75.47;31.90;;;;;;;-1.16;65.78;98650.00;1791954;77;25767;-65
2021/01/30 09:07:56;;;;;;;65.00;27.82;;;;;;;-1.28;66.38;98649.66;1789376;78;21519;-61
2021/01/30 09:10:37;;;;;;;74.47;30.30;;;;;;;-1.38;67.00;98653.06;1793513;79;20942;-61
2021/01/30 09:13:13;;;;;;;75.80;33.18;;;;;;;-1.50;67.54;98643.99;1794320;79;21366;-61
2021/01/30 09:15:46;;;;;;;64.75;27.95;;;;;;;-1.56;68.22;98638.16;1797545;78;20954;-62
2021/01/30 09:18:26;;;;;;;82.78;30.45;;;;;;;-1.62;68.57;98640.52;1788361;79;20976;-62
2021/01/30 09:21:20;;;;;;;66.00;26.52;;;;;;;-1.65;68.79;98636.11;1791734;79;21172;-60
2021/01/30 09:27:34;;;;;;;58.40;29.50;;;;;;;-1.63;69.37;98619.69;1775474;80;20974;-61
2021/01/30 09:33:46;;;;;;;57.15;26.12;;;;;;;-1.59;69.71;98619.61;1776250;80;21002;-65
2021/01/30 09:36:33;;;;;;;49.18;25.92;;;;;;;-1.47;70.42;98612.91;1816790;77;22253;-61
2021/01/30 09:39:01;;;;;;;;;;;;;;;-1.51;70.49;98614.27;1792778;79;21025;-62
2021/01/30 09:41:33;;;;;;;53.20;25.97;;;;;;;-1.48;70.56;98608.64;1790857;79;21358;-62
2021/01/30 09:44:22;;;;;;;66.10;26.90;;;;;;;-1.41;70.82;98598.23;1792685;79;21049;-62
2021/01/30 09:46:54;;;;;;;76.50;31.52;;;;;;;-1.42;70.99;98590.02;1788848;79;20982;-61
2021/01/30 09:49:31;;;;;;;74.45;33.55;;;;;;;-1.38;71.27;98578.14;1790464;79;21061;-62
2021/01/30 09:51:59;;;;;;;93.80;40.17;;;;;;;-1.33;71.42;98569.18;1783414;79;21060;-61
2021/01/30 09:54:28;;;;;;;92.25;42.60;;;;;;;-1.27;71.58;98572.89;1790233;79;21323;-60
2021/01/30 09:57:01;;;;;;;105.52;44.98;;;;;;;-1.15;71.81;98570.11;1787715;79;21041;-63
2021/01/30 09:59:28;;;;;;;97.33;43.60;;;;;;;-1.02;71.74;98566.78;1791397;79;21053;-61
2021/01/30 10:02:18;;;;;;;99.75;44.95;;;;;;;-0.89;71.64;98570.05;1793652;79;21487;-61
2021/01/30 10:04:47;;;;;;;97.60;43.58;;;;;;;-0.80;71.44;98558.90;1793445;79;21002;-64
2021/01/30 10:07:19;;;;;;;104.73;43.63;;;;;;;-0.84;71.12;98557.64;1789818;78;21375;-61
2021/01/30 10:09:48;;;;;;;95.90;41.77;;;;;;;-0.95;71.29;98545.81;1790849;78;21555;-62
2021/01/30 10:12:20;;;;;;;90.45;40.33;;;;;;;-1.00;71.42;98541.60;1793128;79;21005;-60
2021/01/30 10:14:51;;;;;;;77.82;34.95;;;;;;;-1.14;71.78;98528.32;1782346;79;21106;-63
2021/01/30 10:17:32;;;;;;;90.03;36.48;;;;;;;-1.23;72.18;98534.71;1791129;79;21117;-64
2021/01/30 10:20:05;;;;;;;76.15;32.70;;;;;;;-1.40;72.89;98532.80;1790354;79;21474;-62
2021/01/30 10:22:44;;;;;;;72.87;31.17;;;;;;;-1.56;73.39;98517.25;1794199;79;21021;-60
2021/01/30 10:25:25;;;;;;;66.02;30.55;;;;;;;-1.63;73.94;98522.45;1794801;79;21623;-62
2021/01/30 10:28:12;;;;;;;53.85;26.35;;;;;;;-1.74;74.27;98513.20;1790609;79;21172;-61
2021/01/30 10:30:40;;;;;;;58.95;27.58;;;;;;;-1.81;74.39;98505.73;1794474;79;20930;-61
2021/01/30 10:33:10;;;;;;;58.43;25.90;;;;;;;-1.95;74.58;98508.71;1790599;79;21150;-61
2021/01/30 10:35:50;;;;;;;47.90;24.77;;;;;;;-2.04;74.98;98507.98;1772591;79;21410;-62
2021/01/30 10:38:22;;;;;;;49.65;26.33;;;;;;;-2.12;75.51;98501.03;1759868;80;21028;-61
2021/01/30 10:41:02;;;;;;;53.17;27.90;;;;;;;-2.15;75.65;98497.45;1762397;80;20921;-60
2021/01/30 10:43:38;;;;;;;60.40;32.63;;;;;;;-2.07;75.97;98486.03;1766800;80;20957;-63
2021/01/30 10:49:29;;;;;;;71.87;37.38;;;;;;;-1.94;76.46;98471.75;1824042;78;22513;-61
2021/01/30 10:52:13;;;;;;;73.02;37.58;;;;;;;-1.97;76.64;98478.69;1798986;79;20994;-60
2021/01/30 10:54:42;;;;;;;75.17;39.18;;;;;;;-1.92;76.95;98467.63;1798035;79;21909;-61
2021/01/30 10:57:21;;;;;;;77.27;39.75;;;;;;;-1.91;77.43;98470.58;1797259;79;20958;-61
2021/01/30 11:00:02;;;;;;;79.95;40.38;;;;;;;-1.89;77.39;98467.26;1799657;79;21010;-62
2021/01/30 11:02:41;;;;;;;80.83;41.58;;;;;;;-1.71;77.37;98455.54;1800165;79;21073;-62
2021/01/30 11:05:23;;;;;;;91.63;46.20;;;;;;;-1.67;77.39;98447.09;1796435;79;21328;-60
2021/01/30 11:08:01;;;;;;;77.03;40.25;;;;;;;-1.67;77.60;98441.84;1798651;79;21345;-62
2021/01/30 11:10:42;;;;;;;84.20;39.75;;;;;;;-1.63;77.67;98435.22;1800972;79;21028;-60
2021/01/30 11:13:22;;;;;;;75.00;37.80;;;;;;;-1.62;77.83;98433.39;1798953;79;20922;-62
2021/01/30 11:15:50;;;;;;;76.28;37.03;;;;;;;-1.60;78.00;98436.67;1804321;79;21057;-60
2021/01/30 11:18:35;;;;;;;76.95;36.53;;;;;;;-1.58;78.13;98429.39;1797965;79;21134;-63
2021/01/30 11:21:05;;;;;;;67.80;33.53;;;;;;;-1.63;78.60;98425.22;1800596;79;21261;-62
2021/01/30 11:23:44;;;;;;;71.00;36.17;;;;;;;-1.66;78.99;98419.02;1765086;79;20993;-64
2021/01/30 11:26:34;;;;;;;71.20;34.85;;;;;;;-1.66;79.26;98421.14;1803031;77;20918;-61
2021/01/30 11:29:06;;;;;;;70.15;34.50;;;;;;;-1.63;79.39;98412.08;1798255;79;20986;-61
2021/01/30 11:31:37;;;;;;;71.20;35.40;;;;;;;-1.60;79.42;98409.88;1795491;79;21506;-62
2021/01/30 11:34:07;;;;;;;70.15;33.75;;;;;;;-1.56;79.39;98393.73;1792237;79;21349;-61
2021/01/30 11:36:35;;;;;;;69.55;37.00;;;;;;;-1.51;79.50;98386.11;1763578;80;20997;-61
2021/01/30 11:39:05;;;;;;;74.80;37.08;;;;;;;-1.48;79.53;98381.78;1765095;80;21100;-61
2021/01/30 11:41:32;;;;;;;72.12;38.45;;;;;;;-1.47;79.60;98381.59;1765137;80;21080;-63
2021/01/30 11:44:00;;;;;;;71.77;36.85;;;;;;;-1.45;79.81;98387.98;1761952;80;21144;-61
2021/01/30 11:46:27;;;;;;;74.32;35.35;;;;;;;-1.46;80.05;98380.60;1763124;80;21378;-62
2021/01/30 11:48:55;;;;;;;66.00;34.90;;;;;;;-1.43;80.16;98372.81;1754104;80;21225;-62
2021/01/30 11:51:26;;;;;;;78.00;37.38;;;;;;;-1.39;80.08;98364.87;1756858;81;21125;-61
2021/01/30 11:53:54;;;;;;;73.45;38.35;;;;;;;-1.34;80.09;98366.45;1754508;81;21101;-60
2021/01/30 11:56:22;;;;;;;72.82;38.42;;;;;;;-1.31;80.11;98367.86;1753561;81;21002;-61
2021/01/30 11:58:50;;;;;;;71.57;35.05;;;;;;;-1.27;80.10;98360.70;1751397;81;21388;-61
2021/01/30 12:01:18;;;;;;;72.78;36.80;;;;;;;-1.25;80.12;98375.81;1750568;81;21129;-62
2021/01/30 12:03:46;;;;;;;67.42;33.80;;;;;;;-1.26;80.13;98359.72;1753631;79;21271;-62
2021/01/30 12:06:14;;;;;;;69.25;35.70;;;;;;;-1.27;80.16;98356.77;1756375;80;21560;-61
2021/01/30 12:08:42;;;;;;;66.82;34.85;;;;;;;-1.20;80.24;98360.77;1765471;80;21117;-61
2021/01/30 12:11:11;;;;;;;68.55;35.17;;;;;;;-1.13;80.13;98349.80;1752338;80;21381;-62
2021/01/30 12:13:39;;;;;;;65.67;34.20;;;;;;;-1.12;80.08;98350.60;1752031;80;21141;-61